Hilo, HI (96720)

9:55 PM HST on July 25, 2016 (GMT -1000)
Sunrise Estates | | Change Station

Elev 413 ft 19.70 °N, 155.10 °W | Updated 12 seconds ago

Clear
Clear
73.9 °F
Feels Like 71 °F
N
0.0
Wind Variable Wind from SSW
Gusts 0.0 mph

Today
High -- | Low -- °F
--% Chance of Precip.
Yesterday
High -- | Low -- °F
Precip. -- in
Pressure 30.03 in
Visibility 10.0 miles
Clouds Clear
Heat Index 71 °F
Dew Point 72 °F
Humidity 94%
Rainfall 0.00 in
Snow Depth Not available.
5:54 AM 6:59 PM
Waning Gibbous, 57% visible
METAR PHTO 260753Z 19004KT 10SM CLR 25/22 A3003 RMK AO2 SLP167 T02500222
Pressure 30.03 in
Visibility 10.0 miles
Clouds Clear
Heat Index 71 °F
Dew Point 72 °F
Humidity 94%
Rainfall 0.00 in
Snow Depth Not available.
5:54 AM 6:59 PM
Waning Gibbous, 57% visible
METAR PHTO 260753Z 19004KT 10SM CLR 25/22 A3003 RMK AO2 SLP167 T02500222

10-Day Weather Forecast

Almanac

Astronomy

Jul. 25, 2016 Rise Set
Actual Time
Civil Twilight
Nautical Twilight
Astronomical Twilight
Moon
Length of Visible Light
Length of Day
Tomorrow will be .
, % of the Moon is Illuminated

Today's Extremes

State Highs State Lows

Community

WunderPhotos

Upload Photos

1,927,551 photos uploaded!

WunderBlog® & News

Nearby

Air Quality

  Air Quality AQ Index Pollutant
Not available.

Snow Depth

Station Depth Elevation

Earthquake Activity

City Distance Mag. Time & Date
Minimum magnitude displayed is 2.5.

Coastal Water Temperatures

Place Temperature

Stations

Nearby Weather Stations

Station Location Temp. Windchill Dew Point Humidity Wind Precip. Elev Updated Type
                   

Watches & Warnings

There are currently no watches in effect.